createdAt,value
2019-01-25T00:01:56.366Z,54.90
2019-01-25T00:04:48.463Z,54.80
2019-01-25T00:07:40.586Z,54.60
2019-01-25T00:10:32.538Z,55.00
2019-01-25T00:13:24.649Z,54.80
2019-01-25T00:16:17.774Z,54.80
2019-01-25T00:19:10.080Z,55.00
2019-01-25T00:22:01.898Z,54.90
2019-01-25T00:24:53.820Z,54.60
2019-01-25T00:27:45.890Z,54.90
2019-01-25T00:30:37.831Z,55.20
2019-01-25T00:33:30.043Z,55.10
2019-01-25T00:36:22.201Z,54.90
2019-01-25T00:39:14.403Z,54.50
2019-01-25T00:42:06.422Z,54.80
2019-01-25T00:44:58.604Z,55.10
2019-01-25T00:47:50.507Z,55.20
2019-01-25T00:50:42.561Z,55.00
2019-01-25T00:53:34.637Z,54.90
2019-01-25T00:56:26.557Z,54.50
2019-01-25T00:59:18.659Z,54.70
2019-01-25T01:02:10.686Z,54.70
2019-01-25T01:05:02.918Z,55.00
2019-01-25T01:07:55.182Z,55.00
2019-01-25T01:10:47.253Z,55.20
2019-01-25T01:13:39.161Z,54.60
2019-01-25T01:16:31.915Z,54.90
2019-01-25T01:19:24.441Z,55.00
2019-01-25T01:22:16.966Z,54.60
2019-01-25T01:25:09.905Z,54.90
2019-01-25T01:28:02.659Z,55.00
2019-01-25T01:30:54.813Z,54.70
2019-01-25T01:33:47.244Z,55.20
2019-01-25T01:36:39.480Z,54.50
2019-01-25T01:39:32.038Z,54.20
2019-01-25T01:42:24.091Z,53.90
2019-01-25T01:45:16.444Z,54.00
2019-01-25T01:48:08.445Z,54.00
2019-01-25T01:51:01.255Z,53.80
2019-01-25T01:53:53.528Z,53.90
2019-01-25T01:56:45.970Z,54.00
2019-01-25T01:59:38.470Z,54.10
2019-01-25T02:02:31.287Z,53.80
2019-01-25T02:05:23.201Z,54.00
2019-01-25T02:08:15.308Z,53.90
2019-01-25T02:11:07.659Z,54.00
2019-01-25T02:13:59.806Z,54.00
2019-01-25T02:16:53.243Z,53.80
2019-01-25T02:19:46.205Z,53.90
2019-01-25T02:22:38.314Z,53.80
2019-01-25T02:25:30.748Z,53.70
2019-01-25T02:28:26.069Z,53.80
2019-01-25T02:31:18.616Z,53.80
2019-01-25T02:34:10.918Z,53.70
2019-01-25T02:37:03.373Z,53.70
2019-01-25T02:39:55.467Z,53.90
2019-01-25T02:42:47.877Z,53.70
2019-01-25T02:45:40.135Z,54.00
2019-01-25T02:48:32.523Z,54.20
2019-01-25T02:51:24.974Z,54.00
2019-01-25T02:54:17.346Z,54.10
2019-01-25T02:57:10.382Z,54.00
2019-01-25T03:00:02.963Z,53.80
2019-01-25T03:02:55.518Z,53.90
2019-01-25T03:05:48.189Z,53.80
2019-01-25T03:08:40.058Z,53.90
2019-01-25T03:11:32.359Z,54.10
2019-01-25T03:14:24.495Z,54.20
2019-01-25T03:17:17.383Z,54.10
2019-01-25T03:20:10.025Z,54.10
2019-01-25T03:23:02.380Z,54.20
2019-01-25T03:25:54.519Z,54.10
2019-01-25T03:31:37.838Z,53.80
2019-01-25T03:37:20.033Z,53.80
2019-01-25T03:40:13.586Z,53.60
2019-01-25T03:43:05.352Z,53.50
2019-01-25T03:45:57.519Z,53.40
2019-01-25T03:48:50.128Z,53.40
2019-01-25T03:51:42.226Z,53.40
2019-01-25T03:54:34.084Z,53.40
2019-01-25T03:57:26.184Z,53.40
2019-01-25T04:00:19.211Z,53.40
2019-01-25T04:03:11.878Z,53.20
2019-01-25T04:06:04.333Z,53.40
2019-01-25T04:08:56.622Z,53.40
2019-01-25T04:11:49.322Z,53.50
2019-01-25T04:14:41.708Z,53.40
2019-01-25T04:17:37.700Z,53.60
2019-01-25T04:23:34.985Z,53.60
2019-01-25T04:26:27.396Z,53.40
2019-01-25T04:29:20.020Z,53.50
2019-01-25T04:32:12.147Z,53.30
2019-01-25T04:35:04.643Z,53.40
2019-01-25T04:37:56.550Z,53.40
2019-01-25T04:40:50.973Z,53.30
2019-01-25T04:43:42.978Z,53.10
2019-01-25T04:46:34.910Z,53.30
2019-01-25T04:49:26.962Z,54.30
2019-01-25T04:52:21.814Z,54.50
2019-01-25T04:55:16.718Z,54.30
2019-01-25T04:58:10.660Z,54.10
2019-01-25T05:01:09.845Z,54.00
2019-01-25T05:04:03.321Z,53.70
2019-01-25T05:06:56.439Z,53.80
2019-01-25T05:09:48.876Z,53.80
2019-01-25T05:12:42.019Z,53.70
2019-01-25T05:15:34.450Z,53.60
2019-01-25T05:18:26.838Z,53.50
2019-01-25T05:21:26.446Z,53.40
2019-01-25T05:24:18.453Z,53.40
2019-01-25T05:27:10.836Z,53.40
2019-01-25T05:30:05.791Z,53.60
2019-01-25T05:35:53.418Z,53.50
2019-01-25T05:38:52.891Z,53.60
2019-01-25T05:41:46.469Z,53.60
2019-01-25T05:44:43.180Z,53.60
2019-01-25T05:47:39.126Z,53.70
2019-01-25T05:50:32.133Z,53.70
2019-01-25T05:53:25.477Z,53.80
2019-01-25T05:56:23.923Z,53.70
2019-01-25T05:59:20.169Z,53.70
2019-01-25T06:02:16.890Z,53.70
2019-01-25T06:05:16.781Z,53.70
2019-01-25T06:11:35.257Z,53.70
2019-01-25T06:14:22.623Z,53.60
2019-01-25T06:17:20.151Z,53.70
2019-01-25T06:20:18.627Z,53.70
2019-01-25T06:23:16.245Z,53.70
2019-01-25T06:26:09.768Z,53.60
2019-01-25T06:29:02.848Z,53.70
2019-01-25T06:31:55.491Z,53.70
2019-01-25T06:34:49.823Z,53.60
2019-01-25T06:37:42.053Z,53.40
2019-01-25T06:40:35.360Z,53.50
2019-01-25T06:43:28.073Z,53.40
2019-01-25T06:46:20.331Z,53.40
2019-01-25T06:49:13.934Z,53.50
2019-01-25T06:52:06.112Z,53.40
2019-01-25T06:54:58.367Z,53.40
2019-01-25T06:57:58.990Z,53.40
2019-01-25T07:00:59.246Z,53.40
2019-01-25T07:03:52.644Z,53.30
2019-01-25T07:06:55.840Z,53.40
2019-01-25T07:09:51.277Z,53.50
2019-01-25T07:12:43.950Z,53.30
2019-01-25T07:18:30.300Z,53.20
2019-01-25T07:21:24.569Z,53.40
2019-01-25T07:24:18.320Z,53.40
2019-01-25T07:27:13.186Z,53.20
2019-01-25T07:30:08.515Z,53.00
2019-01-25T07:33:08.965Z,52.90
2019-01-25T07:36:03.313Z,53.10
2019-01-25T07:38:56.398Z,52.90
2019-01-25T07:41:58.782Z,53.20
2019-01-25T07:44:46.353Z,53.20
2019-01-25T07:47:42.557Z,53.10
2019-01-25T07:50:35.234Z,53.00
2019-01-25T07:53:30.932Z,52.70
2019-01-25T07:56:24.589Z,53.10
2019-01-25T07:59:20.328Z,53.20
2019-01-25T08:02:14.362Z,53.20
2019-01-25T08:05:37.396Z,53.20
2019-01-25T08:08:27.135Z,53.10
2019-01-25T08:11:19.043Z,52.80
2019-01-25T08:14:14.171Z,53.30
2019-01-25T08:17:07.937Z,53.40
2019-01-25T08:20:02.676Z,53.40
2019-01-25T08:22:57.244Z,53.50
2019-01-25T08:25:54.349Z,54.60
2019-01-25T08:28:50.180Z,55.00
2019-01-25T08:31:42.152Z,55.10
2019-01-25T08:34:35.182Z,55.00
2019-01-25T08:37:28.679Z,55.20
2019-01-25T08:40:20.574Z,55.20
2019-01-25T08:43:12.924Z,55.20
2019-01-25T08:46:05.093Z,55.00
2019-01-25T08:48:59.608Z,54.70
2019-01-25T08:51:51.857Z,54.90
2019-01-25T08:54:46.505Z,54.90
2019-01-25T08:57:38.751Z,55.10
2019-01-25T09:00:30.567Z,54.80
2019-01-25T09:03:24.245Z,54.80
2019-01-25T09:06:18.838Z,55.00
2019-01-25T09:09:12.127Z,55.00
2019-01-25T09:12:04.821Z,54.40
2019-01-25T09:14:57.095Z,54.00
2019-01-25T09:17:49.430Z,55.00
2019-01-25T09:20:42.041Z,54.90
2019-01-25T09:23:34.327Z,54.90
2019-01-25T09:26:26.647Z,54.80
2019-01-25T09:29:19.224Z,54.90
2019-01-25T09:32:11.274Z,54.80
2019-01-25T09:35:03.538Z,54.10
2019-01-25T09:38:03.638Z,54.20
2019-01-25T09:40:56.347Z,54.50
2019-01-25T09:43:52.839Z,54.00
2019-01-25T09:46:48.463Z,54.30
2019-01-25T09:49:44.583Z,53.80
2019-01-25T09:52:37.034Z,54.00
2019-01-25T09:55:34.331Z,53.30
2019-01-25T09:58:26.494Z,52.90
2019-01-25T10:01:18.854Z,52.50
2019-01-25T10:04:10.671Z,52.40
2019-01-25T10:07:03.336Z,52.20
2019-01-25T10:09:55.302Z,52.20
2019-01-25T10:12:48.953Z,51.90
2019-01-25T10:15:41.824Z,52.00
2019-01-25T10:18:35.351Z,51.90
2019-01-25T10:21:31.950Z,52.00
2019-01-25T10:24:24.898Z,51.50
2019-01-25T10:27:19.353Z,51.50
2019-01-25T10:30:14.508Z,51.60
2019-01-25T10:33:08.078Z,51.20
2019-01-25T10:36:01.648Z,51.30
2019-01-25T10:38:53.964Z,51.20
2019-01-25T10:41:46.293Z,51.30
2019-01-25T10:44:38.714Z,51.10
2019-01-25T10:47:30.569Z,50.90
2019-01-25T10:50:23.170Z,51.00
2019-01-25T10:53:15.986Z,51.00
2019-01-25T10:56:09.156Z,50.90
2019-01-25T10:59:02.168Z,50.90
2019-01-25T11:01:55.697Z,50.90
2019-01-25T11:07:46.016Z,51.10
2019-01-25T11:10:46.646Z,51.20
2019-01-25T11:13:45.159Z,51.10
2019-01-25T11:16:45.058Z,51.00
2019-01-25T11:19:38.747Z,51.20
2019-01-25T11:22:34.658Z,51.70
2019-01-25T11:25:28.899Z,52.30
2019-01-25T11:28:21.093Z,52.80
2019-01-25T11:31:14.297Z,53.10
2019-01-25T11:34:07.055Z,53.00
2019-01-25T11:36:59.740Z,53.10
2019-01-25T11:39:58.697Z,53.10
2019-01-25T11:42:51.917Z,53.40
2019-01-25T11:45:44.253Z,53.30
2019-01-25T11:49:01.634Z,53.30
2019-01-25T11:55:34.474Z,53.60
2019-01-25T11:58:34.781Z,53.40
2019-01-25T12:01:40.148Z,53.40
2019-01-25T12:12:16.121Z,53.40
2019-01-25T12:15:09.818Z,53.30
2019-01-25T12:18:02.366Z,53.30
2019-01-25T12:20:55.183Z,53.40
2019-01-25T12:23:49.006Z,53.40
2019-01-25T12:26:41.724Z,53.30
2019-01-25T12:29:34.390Z,53.50
2019-01-25T12:32:29.447Z,53.60
2019-01-25T12:38:15.922Z,53.60
2019-01-25T12:44:01.612Z,53.50
2019-01-25T12:46:54.629Z,53.40
2019-01-25T12:49:46.799Z,53.60
2019-01-25T12:52:38.864Z,53.80
2019-01-25T12:55:32.718Z,53.90
2019-01-25T12:58:22.047Z,54.60
2019-01-25T13:01:13.987Z,55.50
2019-01-25T13:04:06.890Z,56.00
2019-01-25T13:06:58.603Z,56.90
2019-01-25T13:09:50.989Z,56.80
2019-01-25T13:12:42.975Z,56.80
2019-01-25T13:15:35.281Z,57.00
2019-01-25T13:18:27.220Z,56.90
2019-01-25T13:21:18.967Z,56.90
2019-01-25T13:24:11.254Z,57.00
2019-01-25T13:27:03.193Z,57.40
2019-01-25T13:32:41.857Z,57.70
2019-01-25T13:35:34.311Z,57.70
2019-01-25T13:38:26.628Z,57.90
2019-01-25T13:41:19.053Z,58.00
2019-01-25T13:44:11.477Z,57.80
2019-01-25T13:47:03.621Z,57.70
2019-01-25T13:49:56.348Z,57.50
2019-01-25T13:55:37.709Z,57.30
2019-01-25T13:58:30.611Z,57.00
2019-01-25T14:01:22.963Z,56.70
2019-01-25T14:04:15.815Z,56.60
2019-01-25T14:07:12.712Z,56.50
2019-01-25T14:10:05.208Z,56.40
2019-01-25T14:12:57.598Z,56.30
2019-01-25T14:15:50.144Z,56.40
2019-01-25T14:18:44.880Z,56.50
2019-01-25T14:21:35.078Z,56.40
2019-01-25T14:24:27.649Z,56.20
2019-01-25T14:27:19.442Z,56.10
2019-01-25T14:30:31.228Z,56.20
2019-01-25T14:33:23.458Z,56.10
2019-01-25T14:36:15.196Z,55.90
2019-01-25T14:39:09.280Z,55.90
2019-01-25T14:42:01.201Z,55.90
2019-01-25T14:44:53.295Z,55.80
2019-01-25T14:47:45.339Z,55.80
2019-01-25T14:50:37.156Z,55.80
2019-01-25T14:53:29.151Z,55.80
2019-01-25T14:56:21.165Z,56.00
2019-01-25T14:59:13.293Z,55.80
2019-01-25T15:02:05.117Z,56.00
2019-01-25T15:04:57.139Z,55.80
2019-01-25T15:07:50.972Z,55.80
2019-01-25T15:10:42.729Z,55.70
2019-01-25T15:13:34.759Z,55.60
2019-01-25T15:16:26.690Z,55.70
2019-01-25T15:19:18.574Z,55.70
2019-01-25T15:22:10.816Z,55.60
2019-01-25T15:25:02.619Z,55.70
2019-01-25T15:27:54.741Z,55.60
2019-01-25T15:30:47.937Z,55.60
2019-01-25T15:33:41.243Z,55.70
2019-01-25T15:36:34.458Z,55.60
2019-01-25T15:39:26.356Z,55.50
2019-01-25T15:42:18.598Z,55.60
2019-01-25T15:45:12.770Z,55.60
2019-01-25T15:48:04.842Z,55.60
2019-01-25T15:50:58.409Z,55.60
2019-01-25T15:53:50.612Z,55.60
2019-01-25T15:56:42.750Z,55.50
2019-01-25T15:59:35.129Z,55.50
2019-01-25T16:02:27.168Z,55.70
2019-01-25T16:05:20.028Z,55.70
2019-01-25T16:08:12.000Z,55.70
2019-01-25T16:11:03.942Z,55.70
2019-01-25T16:13:56.057Z,55.70
2019-01-25T16:16:48.003Z,55.70
2019-01-25T16:19:39.153Z,55.80
2019-01-25T16:22:31.014Z,55.80
2019-01-25T16:25:24.146Z,55.70
2019-01-25T16:28:16.072Z,55.70
2019-01-25T16:31:07.994Z,55.60
2019-01-25T16:34:01.124Z,55.70
2019-01-25T16:36:51.253Z,55.70
2019-01-25T16:39:44.567Z,55.70
2019-01-25T16:45:26.415Z,55.80
2019-01-25T16:48:18.777Z,55.70
2019-01-25T16:51:11.345Z,55.70
2019-01-25T16:54:03.604Z,55.60
2019-01-25T16:56:55.824Z,55.60
2019-01-25T16:59:47.802Z,55.70
2019-01-25T17:02:40.427Z,55.70
2019-01-25T17:05:34.193Z,55.90
2019-01-25T17:08:26.409Z,55.80
2019-01-25T17:11:18.455Z,56.10
2019-01-25T17:14:11.915Z,55.70
2019-01-25T17:17:03.894Z,55.70
2019-01-25T17:19:55.966Z,55.80
2019-01-25T17:22:47.750Z,56.20
2019-01-25T17:25:40.233Z,56.30
2019-01-25T17:28:32.249Z,56.20
2019-01-25T17:31:24.104Z,56.30
2019-01-25T17:34:16.140Z,57.00
2019-01-25T17:37:07.821Z,56.80
2019-01-25T17:39:59.802Z,57.10
2019-01-25T17:42:51.810Z,57.10
2019-01-25T17:45:44.628Z,57.60
2019-01-25T17:48:36.525Z,57.30
2019-01-25T17:51:28.476Z,57.00
2019-01-25T17:54:20.363Z,56.90
2019-01-25T17:57:11.979Z,56.90
2019-01-25T18:00:04.417Z,56.90
2019-01-25T18:02:56.449Z,57.00
2019-01-25T18:05:48.724Z,56.90
2019-01-25T18:08:40.757Z,57.40
2019-01-25T18:11:33.240Z,57.60
2019-01-25T18:14:25.983Z,57.50
2019-01-25T18:17:19.707Z,57.30
2019-01-25T18:20:12.904Z,57.60
2019-01-25T18:23:05.493Z,57.40
2019-01-25T18:26:02.198Z,57.30
2019-01-25T18:28:57.473Z,57.20
2019-01-25T18:31:49.685Z,57.40
2019-01-25T18:34:42.063Z,57.60
2019-01-25T18:37:35.105Z,57.40
2019-01-25T18:40:27.503Z,57.30
2019-01-25T18:43:19.361Z,57.30
2019-01-25T18:46:11.426Z,57.40
2019-01-25T18:49:03.076Z,57.30
2019-01-25T18:51:55.078Z,57.50
2019-01-25T18:54:48.316Z,57.60
2019-01-25T18:57:40.361Z,58.00
2019-01-25T19:00:31.998Z,57.60
2019-01-25T19:03:23.667Z,57.50
2019-01-25T19:06:15.540Z,57.60
2019-01-25T19:09:09.235Z,57.60
2019-01-25T19:12:00.965Z,57.60
2019-01-25T19:14:53.073Z,57.80
2019-01-25T19:17:45.176Z,57.70
2019-01-25T19:20:37.462Z,57.70
2019-01-25T19:23:29.830Z,57.60
2019-01-25T19:26:21.840Z,57.70
2019-01-25T19:29:14.013Z,57.60
2019-01-25T19:32:05.958Z,57.90
2019-01-25T19:34:57.818Z,57.70
2019-01-25T19:37:50.340Z,57.60
2019-01-25T19:40:42.482Z,57.70
2019-01-25T19:43:34.585Z,57.60
2019-01-25T19:46:26.674Z,57.50
2019-01-25T19:49:19.004Z,57.60
2019-01-25T19:52:12.626Z,57.60
2019-01-25T19:55:05.365Z,57.60
2019-01-25T19:57:57.657Z,57.70
2019-01-25T20:00:49.855Z,57.60
2019-01-25T20:03:41.994Z,57.60
2019-01-25T20:06:34.244Z,57.60
2019-01-25T20:09:26.085Z,57.50
2019-01-25T20:12:18.297Z,57.60
2019-01-25T20:15:11.776Z,57.40
2019-01-25T20:18:03.649Z,57.40
2019-01-25T20:20:55.787Z,57.30
2019-01-25T20:23:47.594Z,57.40
2019-01-25T20:26:39.758Z,57.30
2019-01-25T20:29:31.821Z,57.50
2019-01-25T20:32:23.664Z,57.70
2019-01-25T20:38:06.740Z,57.60
2019-01-25T20:40:58.379Z,57.50
2019-01-25T20:43:50.527Z,57.60
2019-01-25T20:46:43.811Z,57.50
2019-01-25T20:49:35.564Z,57.60
2019-01-25T20:52:28.099Z,57.40
2019-01-25T20:55:21.503Z,57.50
2019-01-25T20:58:13.679Z,57.50
2019-01-25T21:01:05.679Z,57.60
2019-01-25T21:03:58.240Z,57.50
2019-01-25T21:06:50.102Z,57.50
2019-01-25T21:09:42.404Z,57.60
2019-01-25T21:12:34.410Z,57.50
2019-01-25T21:15:34.757Z,57.50
2019-01-25T21:18:20.853Z,57.50
2019-01-25T21:21:15.495Z,57.60
2019-01-25T21:24:07.602Z,57.50
2019-01-25T21:26:59.709Z,57.40
2019-01-25T21:29:51.548Z,57.50
2019-01-25T21:32:43.874Z,57.60
2019-01-25T21:35:37.874Z,57.80
2019-01-25T21:38:29.842Z,58.10
2019-01-25T21:41:22.123Z,58.00
2019-01-25T21:44:14.146Z,57.90
2019-01-25T21:47:06.267Z,58.00
2019-01-25T21:49:58.429Z,57.80
2019-01-25T21:52:50.253Z,58.40
2019-01-25T21:55:42.018Z,57.80
2019-01-25T21:58:33.836Z,57.90
2019-01-25T22:01:26.063Z,58.10
2019-01-25T22:04:17.750Z,58.00
2019-01-25T22:07:09.661Z,57.90
2019-01-25T22:10:01.778Z,57.70
2019-01-25T22:12:54.834Z,57.80
2019-01-25T22:15:51.056Z,57.70
2019-01-25T22:18:40.791Z,57.70
2019-01-25T22:21:32.814Z,57.70
2019-01-25T22:24:24.900Z,57.60
2019-01-25T22:27:16.995Z,57.60
2019-01-25T22:30:09.565Z,57.70
2019-01-25T22:33:01.360Z,57.90
2019-01-25T22:35:53.497Z,58.00
2019-01-25T22:38:45.648Z,58.00
2019-01-25T22:41:37.814Z,58.30
2019-01-25T22:44:31.176Z,58.10
2019-01-25T22:47:23.425Z,58.10
2019-01-25T22:50:18.269Z,58.20
2019-01-25T22:53:12.587Z,58.20
2019-01-25T22:56:04.899Z,58.10
2019-01-25T22:58:59.177Z,58.00
2019-01-25T23:01:52.114Z,58.00
2019-01-25T23:05:04.155Z,58.00
2019-01-25T23:07:56.498Z,58.00
2019-01-25T23:10:48.727Z,58.10
2019-01-25T23:13:41.019Z,58.20
2019-01-25T23:16:33.338Z,58.40
2019-01-25T23:19:25.611Z,58.30
2019-01-25T23:22:17.825Z,58.30
2019-01-25T23:25:11.257Z,58.20
2019-01-25T23:28:03.237Z,58.20
2019-01-25T23:30:55.070Z,58.10
2019-01-25T23:33:47.040Z,58.10
2019-01-25T23:36:38.950Z,58.20
2019-01-25T23:39:31.098Z,58.20
2019-01-25T23:42:23.085Z,58.40
2019-01-25T23:45:15.432Z,58.20
2019-01-25T23:48:08.140Z,58.40
2019-01-25T23:51:00.003Z,58.30
2019-01-25T23:53:51.928Z,58.50
2019-01-25T23:56:43.769Z,58.20
2019-01-25T23:59:35.848Z,58.20
